Aviation Digital Data Service (ADDS)

Output produced by METARs form (0622 UTC 19 February 2019)
found at http://www.aviationweather.gov/metar/data/
 
METAR text: CYOW 190600Z 31008KT 15SM SKC M16/M20 A3042 RMK SLP314
Conditions at: CYOW (OTTAWA INTL , ON, CA) observed 0600 UTC 19 February 2019
Temperature: -16.0°C ( 3°F)
Dewpoint: -20.0°C (-4°F) [RH = 71%]
Pressure (altimeter): 30.42 inches Hg (1030.2 mb)
[Sea-level pressure: 1031.4 mb]
Winds: from the NW (310 degrees) at 9 MPH (8 knots; 4.1 m/s)
Visibility: 15 miles (24 km)
Ceiling: at least 12,000 feet AGL
Clouds: clear skies
Weather: no significant weather observed at this time

METAR text: CYOW 190500Z 33010KT 15SM SKC M14/M19 A3040 RMK SLP305
Conditions at: CYOW (OTTAWA INTL , ON, CA) observed 0500 UTC 19 February 2019
Temperature: -14.0°C ( 7°F)
Dewpoint: -19.0°C (-2°F) [RH = 66%]
Pressure (altimeter): 30.40 inches Hg (1029.5 mb)
[Sea-level pressure: 1030.5 mb]
Winds: from the NNW (330 degrees) at 12 MPH (10 knots; 5.1 m/s)
Visibility: 15 miles (24 km)
Ceiling: at least 12,000 feet AGL
Clouds: clear skies
Weather: no significant weather observed at this time

METAR text: CYOW 190400Z 31008KT 15SM SKC M15/M19 A3037 RMK SLP297
Conditions at: CYOW (OTTAWA INTL , ON, CA) observed 0400 UTC 19 February 2019
Temperature: -15.0°C ( 5°F)
Dewpoint: -19.0°C (-2°F) [RH = 71%]
Pressure (altimeter): 30.37 inches Hg (1028.5 mb)
[Sea-level pressure: 1029.7 mb]
Winds: from the NW (310 degrees) at 9 MPH (8 knots; 4.1 m/s)
Visibility: 15 miles (24 km)
Ceiling: at least 12,000 feet AGL
Clouds: clear skies
Weather: no significant weather observed at this time

METAR text: CYOW 190300Z 33010G16KT 15SM SKC M12/M18 A3035 RMK SLP287
Conditions at: CYOW (OTTAWA INTL , ON, CA) observed 0300 UTC 19 February 2019
Temperature: -12.0°C (10°F)
Dewpoint: -18.0°C (-0°F) [RH = 61%]
Pressure (altimeter): 30.35 inches Hg (1027.9 mb)
[Sea-level pressure: 1028.7 mb]
Winds: from the NNW (330 degrees) at 12 MPH (10 knots; 5.1 m/s)
gusting to 18 MPH (16 knots; 8.2 m/s)
Visibility: 15 miles (24 km)
Ceiling: at least 12,000 feet AGL
Clouds: clear skies
Weather: no significant weather observed at this time

METAR text: CYOW 190200Z 32014G20KT 15SM SKC M11/M18 A3031 RMK SLP274
Conditions at: CYOW (OTTAWA INTL , ON, CA) observed 0200 UTC 19 February 2019
Temperature: -11.0°C (12°F)
Dewpoint: -18.0°C (-0°F) [RH = 56%]
Pressure (altimeter): 30.31 inches Hg (1026.5 mb)
[Sea-level pressure: 1027.4 mb]
Winds: from the NW (320 degrees) at 16 MPH (14 knots; 7.2 m/s)
gusting to 23 MPH (20 knots; 10.3 m/s)
Visibility: 15 miles (24 km)
Ceiling: at least 12,000 feet AGL
Clouds: clear skies
Weather: no significant weather observed at this time

METAR text: CYOW 190100Z 30008KT 15SM FEW220 M11/M17 A3027 RMK CI1 CI TR SLP261
Conditions at: CYOW (OTTAWA INTL , ON, CA) observed 0100 UTC 19 February 2019
Temperature: -11.0°C (12°F)
Dewpoint: -17.0°C ( 1°F) [RH = 61%]
Pressure (altimeter): 30.27 inches Hg (1025.1 mb)
[Sea-level pressure: 1026.1 mb]
Winds: from the WNW (300 degrees) at 9 MPH (8 knots; 4.1 m/s)
Visibility: 15 miles (24 km)
Ceiling: at least 12,000 feet AGL
Clouds: few clouds at 22000 feet AGL
Weather: no significant weather observed at this time

METAR text: CYOW 190000Z 28010KT 15SM FEW220 M10/M16 A3023 RMK CI1 CI TR SLP247
Conditions at: CYOW (OTTAWA INTL , ON, CA) observed 0000 UTC 19 February 2019
Temperature: -10.0°C (14°F)
Dewpoint: -16.0°C ( 3°F) [RH = 61%]
Pressure (altimeter): 30.23 inches Hg (1023.8 mb)
[Sea-level pressure: 1024.7 mb]
Winds: from the W (280 degrees) at 12 MPH (10 knots; 5.1 m/s)
Visibility: 15 miles (24 km)
Ceiling: at least 12,000 feet AGL
Clouds: few clouds at 22000 feet AGL
Weather: no significant weather observed at this time

METAR text: CYOW 182300Z 27009KT 250V310 15SM FEW120 M09/M17 A3018 RMK AC1 AC TR PRESRR SLP231
Conditions at: CYOW (OTTAWA INTL , ON, CA) observed 2300 UTC 18 February 2019
Temperature: -9.0°C (16°F)
Dewpoint: -17.0°C ( 1°F) [RH = 52%]
Pressure (altimeter): 30.18 inches Hg (1022.1 mb)
[Sea-level pressure: 1023.1 mb]
Winds: from the W (270 degrees) at 10 MPH (9 knots; 4.6 m/s)
Visibility: 15 miles (24 km)
Ceiling: at least 12,000 feet AGL
Clouds: few clouds at 12000 feet AGL
Weather: no significant weather observed at this time

METAR text: CYOW 182200Z 34009KT 15SM FEW120 FEW220 M08/M17 A3014 RMK AC1CI1 AC TR CI TR SLP217
Conditions at: CYOW (OTTAWA INTL , ON, CA) observed 2200 UTC 18 February 2019
Temperature: -8.0°C (18°F)
Dewpoint: -17.0°C ( 1°F) [RH = 48%]
Pressure (altimeter): 30.14 inches Hg (1020.7 mb)
[Sea-level pressure: 1021.7 mb]
Winds: from the NNW (340 degrees) at 10 MPH (9 knots; 4.6 m/s)
Visibility: 15 miles (24 km)
Ceiling: at least 12,000 feet AGL
Clouds: few clouds at 12000 feet AGL
few clouds at 22000 feet AGL
Weather: no significant weather observed at this time

METAR text: CYOW 182100Z 33013KT 15SM FEW120 FEW220 M08/M17 A3012 RMK AC1CI1 AC TR SLP209
Conditions at: CYOW (OTTAWA INTL , ON, CA) observed 2100 UTC 18 February 2019
Temperature: -8.0°C (18°F)
Dewpoint: -17.0°C ( 1°F) [RH = 48%]
Pressure (altimeter): 30.12 inches Hg (1020.1 mb)
[Sea-level pressure: 1020.9 mb]
Winds: from the NNW (330 degrees) at 15 MPH (13 knots; 6.7 m/s)
Visibility: 15 miles (24 km)
Ceiling: at least 12,000 feet AGL
Clouds: few clouds at 12000 feet AGL
few clouds at 22000 feet AGL
Weather: no significant weather observed at this time

METAR text: CYOW 182000Z 33013KT 15SM FEW110 FEW220 M08/M17 A3009 RMK AC1CI1 SLP200
Conditions at: CYOW (OTTAWA INTL , ON, CA) observed 2000 UTC 18 February 2019
Temperature: -8.0°C (18°F)
Dewpoint: -17.0°C ( 1°F) [RH = 48%]
Pressure (altimeter): 30.09 inches Hg (1019.0 mb)
[Sea-level pressure: 1020.0 mb]
Winds: from the NNW (330 degrees) at 15 MPH (13 knots; 6.7 m/s)
Visibility: 15 miles (24 km)
Ceiling: at least 12,000 feet AGL
Clouds: few clouds at 11000 feet AGL
few clouds at 22000 feet AGL
Weather: no significant weather observed at this time

METAR text: CYOW 181900Z 30011KT 15SM SCT100 M08/M16 A3007 RMK AC3 SLP194
Conditions at: CYOW (OTTAWA INTL , ON, CA) observed 1900 UTC 18 February 2019
Temperature: -8.0°C (18°F)
Dewpoint: -16.0°C ( 3°F) [RH = 53%]
Pressure (altimeter): 30.07 inches Hg (1018.4 mb)
[Sea-level pressure: 1019.4 mb]
Winds: from the WNW (300 degrees) at 13 MPH (11 knots; 5.7 m/s)
Visibility: 15 miles (24 km)
Ceiling: at least 12,000 feet AGL
Clouds: scattered clouds at 10000 feet AGL
Weather: no significant weather observed at this time

METAR text: CYOW 181800Z 33010KT 15SM SCT110 M08/M17 A3006 RMK AC3 SLP189
Conditions at: CYOW (OTTAWA INTL , ON, CA) observed 1800 UTC 18 February 2019
Temperature: -8.0°C (18°F)
Dewpoint: -17.0°C ( 1°F) [RH = 48%]
Pressure (altimeter): 30.06 inches Hg (1018.0 mb)
[Sea-level pressure: 1018.9 mb]
Winds: from the NNW (330 degrees) at 12 MPH (10 knots; 5.1 m/s)
Visibility: 15 miles (24 km)
Ceiling: at least 12,000 feet AGL
Clouds: scattered clouds at 11000 feet AGL
Weather: no significant weather observed at this time

METAR text: CYOW 181700Z 31010KT 310V010 15SM FEW060 BKN089 M09/M16 A3005 RMK SC1AC5 SC TR SLP188
Conditions at: CYOW (OTTAWA INTL , ON, CA) observed 1700 UTC 18 February 2019
Temperature: -9.0°C (16°F)
Dewpoint: -16.0°C ( 3°F) [RH = 57%]
Pressure (altimeter): 30.05 inches Hg (1017.7 mb)
[Sea-level pressure: 1018.8 mb]
Winds: from the NW (310 degrees) at 12 MPH (10 knots; 5.1 m/s)
Visibility: 15 miles (24 km)
Ceiling: 8900 feet AGL
Clouds: few clouds at 6000 feet AGL
broken clouds at 8900 feet AGL
Weather: no significant weather observed at this time

METAR text: CYOW 181600Z 34009KT 15SM FEW065 BKN083 M10/M16 A3004 RMK SC1AC7 SC TR SLP183
Conditions at: CYOW (OTTAWA INTL , ON, CA) observed 1600 UTC 18 February 2019
Temperature: -10.0°C (14°F)
Dewpoint: -16.0°C ( 3°F) [RH = 61%]
Pressure (altimeter): 30.04 inches Hg (1017.4 mb)
[Sea-level pressure: 1018.3 mb]
Winds: from the NNW (340 degrees) at 10 MPH (9 knots; 4.6 m/s)
Visibility: 15 miles (24 km)
Ceiling: 8300 feet AGL
Clouds: few clouds at 6500 feet AGL
broken clouds at 8300 feet AGL
Weather: no significant weather observed at this time

METAR text: CYOW 181500Z 02009G15KT 15SM BKN060 OVC070 M10/M16 A3003 RMK SC5AC3 SLP179
Conditions at: CYOW (OTTAWA INTL , ON, CA) observed 1500 UTC 18 February 2019
Temperature: -10.0°C (14°F)
Dewpoint: -16.0°C ( 3°F) [RH = 61%]
Pressure (altimeter): 30.03 inches Hg (1017.0 mb)
[Sea-level pressure: 1017.9 mb]
Winds: from the NNE (20 degrees) at 10 MPH (9 knots; 4.6 m/s)
gusting to 17 MPH (15 knots; 7.7 m/s)
Visibility: 15 miles (24 km)
Ceiling: 6000 feet AGL
Clouds: broken clouds at 6000 feet AGL
overcast cloud deck at 7000 feet AGL
Weather: no significant weather observed at this time

METAR text: CYOW 181400Z 01011KT 15SM SCT080 BKN094 M11/M16 A3001 RMK AC3AC4 SLP173
Conditions at: CYOW (OTTAWA INTL , ON, CA) observed 1400 UTC 18 February 2019
Temperature: -11.0°C (12°F)
Dewpoint: -16.0°C ( 3°F) [RH = 67%]
Pressure (altimeter): 30.01 inches Hg (1016.3 mb)
[Sea-level pressure: 1017.3 mb]
Winds: from the N (10 degrees) at 13 MPH (11 knots; 5.7 m/s)
Visibility: 15 miles (24 km)
Ceiling: 9400 feet AGL
Clouds: scattered clouds at 8000 feet AGL
broken clouds at 9400 feet AGL
Weather: no significant weather observed at this time

METAR text: CYOW 181300Z 04010KT 15SM BKN075 BKN093 M12/M16 A2999 RMK AC5AC2 SLP166
Conditions at: CYOW (OTTAWA INTL , ON, CA) observed 1300 UTC 18 February 2019
Temperature: -12.0°C (10°F)
Dewpoint: -16.0°C ( 3°F) [RH = 72%]
Pressure (altimeter): 29.99 inches Hg (1015.7 mb)
[Sea-level pressure: 1016.6 mb]
Winds: from the NE (40 degrees) at 12 MPH (10 knots; 5.1 m/s)
Visibility: 15 miles (24 km)
Ceiling: 7500 feet AGL
Clouds: broken clouds at 7500 feet AGL
broken clouds at 9300 feet AGL
Weather: no significant weather observed at this time

METAR text: CYOW 181200Z 03010KT 15SM BKN078 OVC100 M12/M16 A2997 RMK AC6AC2 SLP160
Conditions at: CYOW (OTTAWA INTL , ON, CA) observed 1200 UTC 18 February 2019
Temperature: -12.0°C (10°F)
Dewpoint: -16.0°C ( 3°F) [RH = 72%]
Pressure (altimeter): 29.97 inches Hg (1015.0 mb)
[Sea-level pressure: 1016.0 mb]
Winds: from the NNE (30 degrees) at 12 MPH (10 knots; 5.1 m/s)
Visibility: 15 miles (24 km)
Ceiling: 7800 feet AGL
Clouds: broken clouds at 7800 feet AGL
overcast cloud deck at 10000 feet AGL
Weather: no significant weather observed at this time

METAR text: CYOW 181100Z 03010KT 15SM BKN080 OVC100 M12/M17 A2997 RMK AC6AC2 SLP160
Conditions at: CYOW (OTTAWA INTL , ON, CA) observed 1100 UTC 18 February 2019
Temperature: -12.0°C (10°F)
Dewpoint: -17.0°C ( 1°F) [RH = 66%]
Pressure (altimeter): 29.97 inches Hg (1015.0 mb)
[Sea-level pressure: 1016.0 mb]
Winds: from the NNE (30 degrees) at 12 MPH (10 knots; 5.1 m/s)
Visibility: 15 miles (24 km)
Ceiling: 8000 feet AGL
Clouds: broken clouds at 8000 feet AGL
overcast cloud deck at 10000 feet AGL
Weather: no significant weather observed at this time

METAR text: CYOW 181000Z 03009KT 15SM BKN070 OVC110 M12/M17 A2999 RMK AC6AC2 SLP165
Conditions at: CYOW (OTTAWA INTL , ON, CA) observed 1000 UTC 18 February 2019
Temperature: -12.0°C (10°F)
Dewpoint: -17.0°C ( 1°F) [RH = 66%]
Pressure (altimeter): 29.99 inches Hg (1015.7 mb)
[Sea-level pressure: 1016.5 mb]
Winds: from the NNE (30 degrees) at 10 MPH (9 knots; 4.6 m/s)
Visibility: 15 miles (24 km)
Ceiling: 7000 feet AGL
Clouds: broken clouds at 7000 feet AGL
overcast cloud deck at 11000 feet AGL
Weather: no significant weather observed at this time

METAR text: CYOW 180900Z 02011KT 15SM OVC070 M12/M17 A2998 RMK AC8 SLP163
Conditions at: CYOW (OTTAWA INTL , ON, CA) observed 0900 UTC 18 February 2019
Temperature: -12.0°C (10°F)
Dewpoint: -17.0°C ( 1°F) [RH = 66%]
Pressure (altimeter): 29.98 inches Hg (1015.3 mb)
[Sea-level pressure: 1016.3 mb]
Winds: from the NNE (20 degrees) at 13 MPH (11 knots; 5.7 m/s)
Visibility: 15 miles (24 km)
Ceiling: 7000 feet AGL
Clouds: overcast cloud deck at 7000 feet AGL
Weather: no significant weather observed at this time

METAR text: CYOW 180800Z 04008KT 15SM OVC090 M12/M17 A2999 RMK AC8 SLP165
Conditions at: CYOW (OTTAWA INTL , ON, CA) observed 0800 UTC 18 February 2019
Temperature: -12.0°C (10°F)
Dewpoint: -17.0°C ( 1°F) [RH = 66%]
Pressure (altimeter): 29.99 inches Hg (1015.7 mb)
[Sea-level pressure: 1016.5 mb]
Winds: from the NE (40 degrees) at 9 MPH (8 knots; 4.1 m/s)
Visibility: 15 miles (24 km)
Ceiling: 9000 feet AGL
Clouds: overcast cloud deck at 9000 feet AGL
Weather: no significant weather observed at this time

METAR text: CYOW 180700Z 04009KT 15SM BKN120 M13/M17 A3000 RMK AC7 SLP169
Conditions at: CYOW (OTTAWA INTL , ON, CA) observed 0700 UTC 18 February 2019
Temperature: -13.0°C ( 9°F)
Dewpoint: -17.0°C ( 1°F) [RH = 72%]
Pressure (altimeter): 30.00 inches Hg (1016.0 mb)
[Sea-level pressure: 1016.9 mb]
Winds: from the NE (40 degrees) at 10 MPH (9 knots; 4.6 m/s)
Visibility: 15 miles (24 km)
Ceiling: 12000 feet AGL
Clouds: broken clouds at 12000 feet AGL
Weather: no significant weather observed at this time

METAR text: CYOW 180600Z 05006KT 15SM BKN130 M13/M18 A3001 RMK AC7 SLP173
Conditions at: CYOW (OTTAWA INTL , ON, CA) observed 0600 UTC 18 February 2019
Temperature: -13.0°C ( 9°F)
Dewpoint: -18.0°C (-0°F) [RH = 66%]
Pressure (altimeter): 30.01 inches Hg (1016.3 mb)
[Sea-level pressure: 1017.3 mb]
Winds: from the NE (50 degrees) at 7 MPH (6 knots; 3.1 m/s)
Visibility: 15 miles (24 km)
Ceiling: 13000 feet AGL
Clouds: broken clouds at 13000 feet AGL
Weather: no significant weather observed at this time

METAR text: CYOW 180500Z 04009KT 14SM BKN110 M13/M18 A3002 RMK AC7 SLP178
Conditions at: CYOW (OTTAWA INTL , ON, CA) observed 0500 UTC 18 February 2019
Temperature: -13.0°C ( 9°F)
Dewpoint: -18.0°C (-0°F) [RH = 66%]
Pressure (altimeter): 30.02 inches Hg (1016.7 mb)
[Sea-level pressure: 1017.8 mb]
Winds: from the NE (40 degrees) at 10 MPH (9 knots; 4.6 m/s)
Visibility: 14 miles (23 km)
Ceiling: 11000 feet AGL
Clouds: broken clouds at 11000 feet AGL
Weather: no significant weather observed at this time

METAR text: CYOW 180400Z 04007KT 15SM BKN140 M13/M18 A3004 RMK AC7 SLP184
Conditions at: CYOW (OTTAWA INTL , ON, CA) observed 0400 UTC 18 February 2019
Temperature: -13.0°C ( 9°F)
Dewpoint: -18.0°C (-0°F) [RH = 66%]
Pressure (altimeter): 30.04 inches Hg (1017.4 mb)
[Sea-level pressure: 1018.4 mb]
Winds: from the NE (40 degrees) at 8 MPH (7 knots; 3.6 m/s)
Visibility: 15 miles (24 km)
Ceiling: 14000 feet AGL
Clouds: broken clouds at 14000 feet AGL
Weather: no significant weather observed at this time

METAR text: CYOW 180300Z 06005KT 15SM BKN140 BKN220 M13/M18 A3006 RMK AC5CI1 SLP189
Conditions at: CYOW (OTTAWA INTL , ON, CA) observed 0300 UTC 18 February 2019
Temperature: -13.0°C ( 9°F)
Dewpoint: -18.0°C (-0°F) [RH = 66%]
Pressure (altimeter): 30.06 inches Hg (1018.0 mb)
[Sea-level pressure: 1018.9 mb]
Winds: from the ENE (60 degrees) at 6 MPH (5 knots; 2.6 m/s)
Visibility: 15 miles (24 km)
Ceiling: 14000 feet AGL
Clouds: broken clouds at 14000 feet AGL
broken clouds at 22000 feet AGL
Weather: no significant weather observed at this time

METAR text: CYOW 180200Z 04007KT 15SM SCT130 BKN220 M13/M18 A3006 RMK AC4CI1 SLP190
Conditions at: CYOW (OTTAWA INTL , ON, CA) observed 0200 UTC 18 February 2019
Temperature: -13.0°C ( 9°F)
Dewpoint: -18.0°C (-0°F) [RH = 66%]
Pressure (altimeter): 30.06 inches Hg (1018.0 mb)
[Sea-level pressure: 1019.0 mb]
Winds: from the NE (40 degrees) at 8 MPH (7 knots; 3.6 m/s)
Visibility: 15 miles (24 km)
Ceiling: 22000 feet AGL
Clouds: scattered clouds at 13000 feet AGL
broken clouds at 22000 feet AGL
Weather: no significant weather observed at this time

METAR text: CYOW 180100Z 05005KT 15SM SCT140 BKN220 M12/M18 A3007 RMK AC4CI2 SLP193
Conditions at: CYOW (OTTAWA INTL , ON, CA) observed 0100 UTC 18 February 2019
Temperature: -12.0°C (10°F)
Dewpoint: -18.0°C (-0°F) [RH = 61%]
Pressure (altimeter): 30.07 inches Hg (1018.4 mb)
[Sea-level pressure: 1019.3 mb]
Winds: from the NE (50 degrees) at 6 MPH (5 knots; 2.6 m/s)
Visibility: 15 miles (24 km)
Ceiling: 22000 feet AGL
Clouds: scattered clouds at 14000 feet AGL
broken clouds at 22000 feet AGL
Weather: no significant weather observed at this time

METAR text: CYOW 180000Z 07004KT 15SM BKN150 BKN220 M11/M18 A3007 RMK AC5CI2 SLP196
Conditions at: CYOW (OTTAWA INTL , ON, CA) observed 0000 UTC 18 February 2019
Temperature: -11.0°C (12°F)
Dewpoint: -18.0°C (-0°F) [RH = 56%]
Pressure (altimeter): 30.07 inches Hg (1018.4 mb)
[Sea-level pressure: 1019.6 mb]
Winds: from the ENE (70 degrees) at 5 MPH (4 knots; 2.1 m/s)
Visibility: 15 miles (24 km)
Ceiling: 15000 feet AGL
Clouds: broken clouds at 15000 feet AGL
broken clouds at 22000 feet AGL
Weather: no significant weather observed at this time

METAR text: CYOW 172300Z 07003KT 15SM SCT150 BKN220 M11/M18 A3009 RMK AC3CI2 SLP200
Conditions at: CYOW (OTTAWA INTL , ON, CA) observed 2300 UTC 17 February 2019
Temperature: -11.0°C (12°F)
Dewpoint: -18.0°C (-0°F) [RH = 56%]
Pressure (altimeter): 30.09 inches Hg (1019.0 mb)
[Sea-level pressure: 1020.0 mb]
Winds: from the ENE (70 degrees) at 3 MPH (3 knots; 1.5 m/s)
Visibility: 15 miles (24 km)
Ceiling: 22000 feet AGL
Clouds: scattered clouds at 15000 feet AGL
broken clouds at 22000 feet AGL
Weather: no significant weather observed at this time

METAR text: CYOW 172200Z 04006KT 15SM SCT150 BKN220 M09/M17 A3010 RMK AC3CI2 SLP205
Conditions at: CYOW (OTTAWA INTL , ON, CA) observed 2200 UTC 17 February 2019
Temperature: -9.0°C (16°F)
Dewpoint: -17.0°C ( 1°F) [RH = 52%]
Pressure (altimeter): 30.10 inches Hg (1019.4 mb)
[Sea-level pressure: 1020.5 mb]
Winds: from the NE (40 degrees) at 7 MPH (6 knots; 3.1 m/s)
Visibility: 15 miles (24 km)
Ceiling: 22000 feet AGL
Clouds: scattered clouds at 15000 feet AGL
broken clouds at 22000 feet AGL
Weather: no significant weather observed at this time

METAR text: CYOW 172100Z 26003KT 15SM FEW170 SCT250 M09/M17 A3013 RMK AC2CI2 SLP213
Conditions at: CYOW (OTTAWA INTL , ON, CA) observed 2100 UTC 17 February 2019
Temperature: -9.0°C (16°F)
Dewpoint: -17.0°C ( 1°F) [RH = 52%]
Pressure (altimeter): 30.13 inches Hg (1020.4 mb)
[Sea-level pressure: 1021.3 mb]
Winds: from the W (260 degrees) at 3 MPH (3 knots; 1.5 m/s)
Visibility: 15 miles (24 km)
Ceiling: at least 12,000 feet AGL
Clouds: few clouds at 17000 feet AGL
scattered clouds at 25000 feet AGL
Weather: no significant weather observed at this time

METAR text: CYOW 172000Z VRB02KT 15SM FEW180 BKN240 M09/M17 A3014 RMK AC1CI7 AC TR SLP217
Conditions at: CYOW (OTTAWA INTL , ON, CA) observed 2000 UTC 17 February 2019
Temperature: -9.0°C (16°F)
Dewpoint: -17.0°C ( 1°F) [RH = 52%]
Pressure (altimeter): 30.14 inches Hg (1020.7 mb)
[Sea-level pressure: 1021.7 mb]
Winds: variable direction winds at 2 MPH (2 knots; 1.0 m/s)
Visibility: 15 miles (24 km)
Ceiling: 24000 feet AGL
Clouds: few clouds at 18000 feet AGL
broken clouds at 24000 feet AGL
Weather: no significant weather observed at this time

METAR text: CYOW 171900Z 13003KT 15SM BKN240 M10/M17 A3016 RMK CI7 SLP224
Conditions at: CYOW (OTTAWA INTL , ON, CA) observed 1900 UTC 17 February 2019
Temperature: -10.0°C (14°F)
Dewpoint: -17.0°C ( 1°F) [RH = 57%]
Pressure (altimeter): 30.16 inches Hg (1021.4 mb)
[Sea-level pressure: 1022.4 mb]
Winds: from the SE (130 degrees) at 3 MPH (3 knots; 1.5 m/s)
Visibility: 15 miles (24 km)
Ceiling: 24000 feet AGL
Clouds: broken clouds at 24000 feet AGL
Weather: no significant weather observed at this time

Forecast for: CYOW (OTTAWA INTL , ON, CA)
Text: TAF CYOW 190538Z 1906/2006 32010KT P6SM SKC
Forecast period: 0600 to 0900 UTC 19 February 2019
Forecast type: FROM: standard forecast or significant change
Winds: from the NW (320 degrees) at 12 MPH (10 knots; 5.1 m/s)
Visibility: 6 or more miles 10+ km)
Clouds: clear skies
Weather: no significant weather forecast for this period
Text: BECMG 1909/1911 27006KT
Forecast period: 0900 to 1700 UTC 19 February 2019
Forecast type: BECOMING: Conditions expected to become as follows by 1100 UTC 19 February 2019
Winds: from the W (270 degrees) at 7 MPH (6 knots; 3.1 m/s)
Visibility: 6 or more miles 10+ km)
Clouds: clear skies
Weather: no significant weather forecast for this period
Text: FM191700 27008KT P6SM FEW025
Forecast period: 1700 UTC 19 February 2019 to 0200 UTC 20 February 2019
Forecast type: FROM: standard forecast or significant change
Winds: from the W (270 degrees) at 9 MPH (8 knots; 4.1 m/s)
Visibility: 6 or more miles 10+ km)
Ceiling: at least 12,000 feet AGL
Clouds: few clouds at 2500 feet AGL
Weather: no significant weather forecast for this period
Text: FM200200 VRB03KT P6SM SKC RMK NXT FCST BY 190900Z
Forecast period: 0200 to 0600 UTC 20 February 2019
Forecast type: FROM: standard forecast or significant change
Winds: variable direction winds at 3 MPH (3 knots; 1.5 m/s)
Visibility: 6 or more miles 10+ km)
Clouds: clear skies
Weather: no significant weather forecast for this period